Terminal Aerodrome Forecast
Issued by NWS

Home | Current Version | Previous Version | Text Only | Print | Product List | Glossary Off
Versions: 1 2 3 4 5 6 7 8 9 10 11 12 13 14 15 16 17 18 19 20

000
FTUS41 KCLE 081732
TAFFDY
TAF
KFDY 081732Z 0818/0918 23014G22KT P6SM SKC
     FM082100 22010KT P6SM BKN250
     FM091400 20010KT P6SM -SN OVC060
     FM091600 23009KT 4SM -SN OVC025=

USA.gov is the U.S. government's official web portal to all federal, state and local government web resources and services.